sensor_id;sensor_type;location;lat;lon;timestamp;noise_LAeq;noise_LA_min;noise_LA_max;noise_LA01;noise_LA95
77135;Laerm;48586;50.122;18.972;2023-03-01T00:00:35;35.28;33.86;39.25;;
77135;Laerm;48586;50.122;18.972;2023-03-01T00:02:39;42.49;34.26;55.43;;
77135;Laerm;48586;50.122;18.972;2023-03-01T00:04:44;43.98;34.06;57.05;;
77135;Laerm;48586;50.122;18.972;2023-03-01T00:06:50;35.39;33.85;45.56;;
77135;Laerm;48586;50.122;18.972;2023-03-01T00:08:57;35.39;34.14;46.75;;
77135;Laerm;48586;50.122;18.972;2023-03-01T00:11:05;35.23;34.07;37.39;;
77135;Laerm;48586;50.122;18.972;2023-03-01T00:13:12;35.52;33.86;49.93;;
77135;Laerm;48586;50.122;18.972;2023-03-01T00:15:16;36.16;34.06;44.48;;
77135;Laerm;48586;50.122;18.972;2023-03-01T00:17:21;41.21;34.00;54.46;;
77135;Laerm;48586;50.122;18.972;2023-03-01T00:19:27;42.25;34.01;55.05;;
77135;Laerm;48586;50.122;18.972;2023-03-01T00:21:31;42.42;33.95;54.24;;
77135;Laerm;48586;50.122;18.972;2023-03-01T00:23:37;35.29;33.87;48.07;;
77135;Laerm;48586;50.122;18.972;2023-03-01T00:25:46;39.13;34.12;49.89;;
77135;Laerm;48586;50.122;18.972;2023-03-01T00:27:51;36.44;33.94;44.44;;
77135;Laerm;48586;50.122;18.972;2023-03-01T00:29:56;39.56;33.85;51.15;;
77135;Laerm;48586;50.122;18.972;2023-03-01T00:32:01;35.40;33.88;45.40;;
77135;Laerm;48586;50.122;18.972;2023-03-01T00:34:07;35.31;33.70;38.77;;
77135;Laerm;48586;50.122;18.972;2023-03-01T00:36:15;35.52;34.03;43.01;;
77135;Laerm;48586;50.122;18.972;2023-03-01T00:38:20;42.02;33.64;53.32;;
77135;Laerm;48586;50.122;18.972;2023-03-01T00:40:26;35.23;33.85;38.91;;
77135;Laerm;48586;50.122;18.972;2023-03-01T00:42:33;39.01;34.29;51.54;;
77135;Laerm;48586;50.122;18.972;2023-03-01T00:44:39;38.59;33.87;50.25;;
77135;Laerm;48586;50.122;18.972;2023-03-01T00:46:44;37.31;34.04;48.02;;
77135;Laerm;48586;50.122;18.972;2023-03-01T00:48:50;35.16;33.62;38.87;;
77135;Laerm;48586;50.122;18.972;2023-03-01T00:50:55;40.36;34.45;54.12;;
77135;Laerm;48586;50.122;18.972;2023-03-01T00:53:00;42.27;34.02;54.14;;
77135;Laerm;48586;50.122;18.972;2023-03-01T00:55:07;35.14;33.79;38.78;;
77135;Laerm;48586;50.122;18.972;2023-03-01T00:57:13;36.18;34.25;50.99;;
77135;Laerm;48586;50.122;18.972;2023-03-01T00:59:20;35.07;33.72;39.35;;
77135;Laerm;48586;50.122;18.972;2023-03-01T01:01:27;35.13;33.81;38.20;;
77135;Laerm;48586;50.122;18.972;2023-03-01T01:03:34;41.25;34.26;52.36;;
77135;Laerm;48586;50.122;18.972;2023-03-01T01:05:38;35.54;33.93;42.56;;
77135;Laerm;48586;50.122;18.972;2023-03-01T01:07:43;35.16;33.84;43.28;;
77135;Laerm;48586;50.122;18.972;2023-03-01T01:09:49;35.44;33.98;42.00;;
77135;Laerm;48586;50.122;18.972;2023-03-01T01:11:53;36.04;33.98;43.28;;
77135;Laerm;48586;50.122;18.972;2023-03-01T01:13:59;35.18;33.73;36.77;;
77135;Laerm;48586;50.122;18.972;2023-03-01T01:16:08;38.50;33.98;49.24;;
77135;Laerm;48586;50.122;18.972;2023-03-01T01:18:14;39.65;34.48;47.64;;
77135;Laerm;48586;50.122;18.972;2023-03-01T01:20:18;41.63;33.91;52.56;;
77135;Laerm;48586;50.122;18.972;2023-03-01T01:22:25;35.62;33.90;40.12;;
77135;Laerm;48586;50.122;18.972;2023-03-01T01:24:30;35.17;33.73;37.07;;
77135;Laerm;48586;50.122;18.972;2023-03-01T01:26:35;39.42;33.94;50.27;;
77135;Laerm;48586;50.122;18.972;2023-03-01T01:28:40;36.33;34.14;42.96;;
77135;Laerm;48586;50.122;18.972;2023-03-01T01:30:45;40.71;33.84;52.85;;
77135;Laerm;48586;50.122;18.972;2023-03-01T01:32:53;44.27;34.08;62.69;;
77135;Laerm;48586;50.122;18.972;2023-03-01T01:34:58;36.28;34.08;41.70;;
77135;Laerm;48586;50.122;18.972;2023-03-01T01:37:02;40.73;33.95;51.21;;
77135;Laerm;48586;50.122;18.972;2023-03-01T01:39:09;35.11;34.00;38.27;;
77135;Laerm;48586;50.122;18.972;2023-03-01T01:41:16;41.42;33.91;54.33;;
77135;Laerm;48586;50.122;18.972;2023-03-01T01:43:26;35.51;33.80;39.29;;
77135;Laerm;48586;50.122;18.972;2023-03-01T01:45:35;35.21;34.00;38.07;;
77135;Laerm;48586;50.122;18.972;2023-03-01T01:47:40;36.28;34.36;47.03;;
77135;Laerm;48586;50.122;18.972;2023-03-01T01:49:51;36.32;34.11;42.97;;
77135;Laerm;48586;50.122;18.972;2023-03-01T01:52:05;38.02;34.07;44.73;;
77135;Laerm;48586;50.122;18.972;2023-03-01T01:54:18;35.58;34.27;38.11;;
77135;Laerm;48586;50.122;18.972;2023-03-01T01:56:28;35.61;34.04;40.48;;
77135;Laerm;48586;50.122;18.972;2023-03-01T01:58:34;39.11;34.20;51.03;;
77135;Laerm;48586;50.122;18.972;2023-03-01T02:00:40;42.73;34.17;54.53;;
77135;Laerm;48586;50.122;18.972;2023-03-01T02:02:49;35.98;33.86;43.98;;
77135;Laerm;48586;50.122;18.972;2023-03-01T02:05:09;35.17;33.98;44.93;;
77135;Laerm;48586;50.122;18.972;2023-03-01T02:07:20;35.27;33.71;43.10;;
77135;Laerm;48586;50.122;18.972;2023-03-01T02:09:26;35.98;34.09;45.42;;
77135;Laerm;48586;50.122;18.972;2023-03-01T02:11:34;40.83;34.25;51.79;;
77135;Laerm;48586;50.122;18.972;2023-03-01T02:13:41;35.47;34.00;43.74;;
77135;Laerm;48586;50.122;18.972;2023-03-01T02:15:46;35.44;33.31;38.53;;
77135;Laerm;48586;50.122;18.972;2023-03-01T02:17:54;35.46;34.13;39.51;;
77135;Laerm;48586;50.122;18.972;2023-03-01T02:20:18;35.21;33.98;36.90;;
77135;Laerm;48586;50.122;18.972;2023-03-01T02:22:31;35.20;33.88;38.13;;
77135;Laerm;48586;50.122;18.972;2023-03-01T02:24:52;40.40;34.17;51.82;;
77135;Laerm;48586;50.122;18.972;2023-03-01T02:27:05;36.30;34.15;44.26;;
77135;Laerm;48586;50.122;18.972;2023-03-01T02:29:13;37.16;34.56;49.41;;
77135;Laerm;48586;50.122;18.972;2023-03-01T02:31:21;36.92;34.26;45.29;;
77135;Laerm;48586;50.122;18.972;2023-03-01T02:33:49;41.02;35.16;50.61;;
77135;Laerm;48586;50.122;18.972;2023-03-01T02:35:56;38.03;34.30;46.73;;
77135;Laerm;48586;50.122;18.972;2023-03-01T02:38:07;35.64;34.05;40.87;;
77135;Laerm;48586;50.122;18.972;2023-03-01T02:40:18;35.93;34.11;44.52;;
77135;Laerm;48586;50.122;18.972;2023-03-01T02:42:30;43.55;34.28;56.24;;
77135;Laerm;48586;50.122;18.972;2023-03-01T02:44:39;35.82;33.86;42.57;;
77135;Laerm;48586;50.122;18.972;2023-03-01T02:46:46;37.91;33.83;47.68;;
77135;Laerm;48586;50.122;18.972;2023-03-01T02:48:55;35.57;34.20;42.96;;
77135;Laerm;48586;50.122;18.972;2023-03-01T02:51:18;42.30;34.36;54.01;;
77135;Laerm;48586;50.122;18.972;2023-03-01T02:53:41;35.97;34.30;41.35;;
77135;Laerm;48586;50.122;18.972;2023-03-01T02:55:50;35.86;34.42;42.72;;
77135;Laerm;48586;50.122;18.972;2023-03-01T02:57:56;38.83;34.34;49.55;;
77135;Laerm;48586;50.122;18.972;2023-03-01T03:00:10;39.92;34.44;51.61;;
77135;Laerm;48586;50.122;18.972;2023-03-01T03:02:24;35.99;33.93;46.44;;
77135;Laerm;48586;50.122;18.972;2023-03-01T03:04:41;35.54;34.10;38.64;;
77135;Laerm;48586;50.122;18.972;2023-03-01T03:06:46;39.90;34.37;52.07;;
77135;Laerm;48586;50.122;18.972;2023-03-01T03:08:51;37.19;34.52;51.07;;
77135;Laerm;48586;50.122;18.972;2023-03-01T03:10:56;43.18;34.49;53.33;;
77135;Laerm;48586;50.122;18.972;2023-03-01T03:13:04;41.65;35.03;48.94;;
77135;Laerm;48586;50.122;18.972;2023-03-01T03:15:11;42.75;34.30;55.58;;
77135;Laerm;48586;50.122;18.972;2023-03-01T03:17:16;35.68;34.04;40.41;;
77135;Laerm;48586;50.122;18.972;2023-03-01T03:19:21;40.39;34.55;50.82;;
77135;Laerm;48586;50.122;18.972;2023-03-01T03:21:25;41.88;34.32;52.59;;
77135;Laerm;48586;50.122;18.972;2023-03-01T03:23:29;38.24;34.11;48.30;;
77135;Laerm;48586;50.122;18.972;2023-03-01T03:25:33;35.77;34.17;37.54;;
77135;Laerm;48586;50.122;18.972;2023-03-01T03:27:41;41.17;34.19;53.89;;
77135;Laerm;48586;50.122;18.972;2023-03-01T03:29:46;40.62;34.22;53.33;;
77135;Laerm;48586;50.122;18.972;2023-03-01T03:31:52;35.26;34.05;36.90;;
77135;Laerm;48586;50.122;18.972;2023-03-01T03:33:56;40.70;34.43;53.07;;
77135;Laerm;48586;50.122;18.972;2023-03-01T03:36:01;41.41;34.67;51.16;;
77135;Laerm;48586;50.122;18.972;2023-03-01T03:38:10;39.01;34.46;49.89;;
77135;Laerm;48586;50.122;18.972;2023-03-01T03:40:16;39.39;35.00;47.91;;
77135;Laerm;48586;50.122;18.972;2023-03-01T03:42:22;44.54;35.56;59.68;;
77135;Laerm;48586;50.122;18.972;2023-03-01T03:44:26;40.93;34.46;53.88;;
77135;Laerm;48586;50.122;18.972;2023-03-01T03:46:30;40.41;34.42;51.47;;
77135;Laerm;48586;50.122;18.972;2023-03-01T03:48:40;35.87;34.38;43.77;;
77135;Laerm;48586;50.122;18.972;2023-03-01T03:50:49;37.19;34.43;43.36;;
77135;Laerm;48586;50.122;18.972;2023-03-01T03:52:53;39.46;34.63;48.66;;
77135;Laerm;48586;50.122;18.972;2023-03-01T03:54:58;45.37;36.04;58.20;;
77135;Laerm;48586;50.122;18.972;2023-03-01T03:57:02;44.40;36.41;55.48;;
77135;Laerm;48586;50.122;18.972;2023-03-01T03:59:06;44.48;36.39;57.38;;
77135;Laerm;48586;50.122;18.972;2023-03-01T04:01:13;41.87;35.65;52.13;;
77135;Laerm;48586;50.122;18.972;2023-03-01T04:03:19;45.87;35.59;56.81;;
77135;Laerm;48586;50.122;18.972;2023-03-01T04:05:27;46.42;35.83;55.42;;
77135;Laerm;48586;50.122;18.972;2023-03-01T04:07:32;40.20;35.15;49.60;;
77135;Laerm;48586;50.122;18.972;2023-03-01T04:09:36;47.90;35.56;54.78;;
77135;Laerm;48586;50.122;18.972;2023-03-01T04:11:40;43.10;36.44;52.23;;
77135;Laerm;48586;50.122;18.972;2023-03-01T04:13:44;40.38;36.01;46.35;;
77135;Laerm;48586;50.122;18.972;2023-03-01T04:15:49;43.77;35.39;54.35;;
77135;Laerm;48586;50.122;18.972;2023-03-01T04:17:55;46.29;36.56;56.32;;
77135;Laerm;48586;50.122;18.972;2023-03-01T04:20:00;47.22;36.04;55.07;;
77135;Laerm;48586;50.122;18.972;2023-03-01T04:22:09;46.72;40.29;56.51;;
77135;Laerm;48586;50.122;18.972;2023-03-01T04:24:18;43.08;36.27;51.68;;
77135;Laerm;48586;50.122;18.972;2023-03-01T04:26:24;49.15;36.80;58.75;;
77135;Laerm;48586;50.122;18.972;2023-03-01T04:28:31;46.39;37.01;54.39;;
77135;Laerm;48586;50.122;18.972;2023-03-01T04:30:37;47.47;36.15;54.76;;
77135;Laerm;48586;50.122;18.972;2023-03-01T04:32:43;49.87;42.03;56.39;;
77135;Laerm;48586;50.122;18.972;2023-03-01T04:34:47;49.11;38.23;60.45;;
77135;Laerm;48586;50.122;18.972;2023-03-01T04:36:51;46.97;36.68;54.96;;
77135;Laerm;48586;50.122;18.972;2023-03-01T04:38:58;45.61;37.19;52.17;;
77135;Laerm;48586;50.122;18.972;2023-03-01T04:41:15;45.98;38.75;53.99;;
77135;Laerm;48586;50.122;18.972;2023-03-01T04:43:19;44.59;37.26;52.74;;
77135;Laerm;48586;50.122;18.972;2023-03-01T04:45:24;47.99;40.48;54.95;;
77135;Laerm;48586;50.122;18.972;2023-03-01T04:47:28;48.30;38.74;57.19;;
77135;Laerm;48586;50.122;18.972;2023-03-01T04:49:33;47.25;38.46;53.91;;
77135;Laerm;48586;50.122;18.972;2023-03-01T04:51:37;45.76;38.85;54.56;;
77135;Laerm;48586;50.122;18.972;2023-03-01T04:53:43;46.51;37.96;55.26;;
77135;Laerm;48586;50.122;18.972;2023-03-01T04:55:50;47.73;35.36;56.79;;
77135;Laerm;48586;50.122;18.972;2023-03-01T04:57:55;47.70;35.99;57.93;;
77135;Laerm;48586;50.122;18.972;2023-03-01T05:00:00;49.05;36.87;59.18;;
77135;Laerm;48586;50.122;18.972;2023-03-01T05:02:22;49.65;40.63;56.13;;
77135;Laerm;48586;50.122;18.972;2023-03-01T05:04:27;47.28;37.29;57.04;;
77135;Laerm;48586;50.122;18.972;2023-03-01T05:06:32;47.72;36.91;58.94;;
77135;Laerm;48586;50.122;18.972;2023-03-01T05:08:36;47.70;37.99;56.37;;
77135;Laerm;48586;50.122;18.972;2023-03-01T05:10:41;50.55;37.45;60.38;;
77135;Laerm;48586;50.122;18.972;2023-03-01T05:12:49;49.08;40.26;56.28;;
77135;Laerm;48586;50.122;18.972;2023-03-01T05:14:54;50.93;42.45;56.66;;
77135;Laerm;48586;50.122;18.972;2023-03-01T05:17:00;50.63;40.98;56.21;;
77135;Laerm;48586;50.122;18.972;2023-03-01T05:19:05;50.78;42.85;60.10;;
77135;Laerm;48586;50.122;18.972;2023-03-01T05:21:14;51.35;44.14;58.76;;
77135;Laerm;48586;50.122;18.972;2023-03-01T05:23:20;47.14;39.80;56.20;;
77135;Laerm;48586;50.122;18.972;2023-03-01T05:25:24;50.57;40.90;63.34;;
77135;Laerm;48586;50.122;18.972;2023-03-01T05:27:28;49.30;41.03;65.22;;
77135;Laerm;48586;50.122;18.972;2023-03-01T05:29:35;50.68;41.59;69.11;;
77135;Laerm;48586;50.122;18.972;2023-03-01T05:31:40;47.20;40.24;60.98;;
77135;Laerm;48586;50.122;18.972;2023-03-01T05:33:44;50.60;40.98;69.65;;
77135;Laerm;48586;50.122;18.972;2023-03-01T05:35:51;49.31;40.33;61.14;;
77135;Laerm;48586;50.122;18.972;2023-03-01T05:37:55;50.80;42.79;65.97;;
77135;Laerm;48586;50.122;18.972;2023-03-01T05:39:59;50.02;42.94;56.71;;
77135;Laerm;48586;50.122;18.972;2023-03-01T05:42:06;51.36;44.71;58.98;;
77135;Laerm;48586;50.122;18.972;2023-03-01T05:44:10;51.74;43.27;58.37;;
77135;Laerm;48586;50.122;18.972;2023-03-01T05:46:17;49.87;42.30;56.89;;
77135;Laerm;48586;50.122;18.972;2023-03-01T05:48:22;54.68;47.60;60.21;;
77135;Laerm;48586;50.122;18.972;2023-03-01T05:50:29;47.84;41.97;53.95;;
77135;Laerm;48586;50.122;18.972;2023-03-01T05:52:33;51.97;46.38;60.19;;
77135;Laerm;48586;50.122;18.972;2023-03-01T05:54:38;49.22;43.31;58.11;;
77135;Laerm;48586;50.122;18.972;2023-03-01T05:56:44;51.57;41.97;67.54;;
77135;Laerm;48586;50.122;18.972;2023-03-01T05:58:50;51.42;43.32;59.51;;
77135;Laerm;48586;50.122;18.972;2023-03-01T06:00:55;49.14;41.43;57.83;;
77135;Laerm;48586;50.122;18.972;2023-03-01T06:03:03;49.24;43.33;55.37;;
77135;Laerm;48586;50.122;18.972;2023-03-01T06:05:11;50.64;43.02;57.48;;
77135;Laerm;48586;50.122;18.972;2023-03-01T06:07:17;50.09;42.49;58.75;;
77135;Laerm;48586;50.122;18.972;2023-03-01T06:09:22;51.51;44.32;65.30;;
77135;Laerm;48586;50.122;18.972;2023-03-01T06:11:28;53.73;43.87;70.28;;
77135;Laerm;48586;50.122;18.972;2023-03-01T06:13:41;50.06;43.27;63.41;;
77135;Laerm;48586;50.122;18.972;2023-03-01T06:15:46;50.03;40.52;61.57;;
77135;Laerm;48586;50.122;18.972;2023-03-01T06:17:53;50.95;40.69;69.59;;
77135;Laerm;48586;50.122;18.972;2023-03-01T06:20:03;54.71;39.99;69.28;;
77135;Laerm;48586;50.122;18.972;2023-03-01T06:22:08;53.35;42.81;69.37;;
77135;Laerm;48586;50.122;18.972;2023-03-01T06:24:13;52.32;44.01;66.96;;
77135;Laerm;48586;50.122;18.972;2023-03-01T06:26:19;50.08;40.45;62.89;;
77135;Laerm;48586;50.122;18.972;2023-03-01T06:28:23;53.05;41.44;69.62;;
77135;Laerm;48586;50.122;18.972;2023-03-01T06:30:28;53.59;40.73;65.54;;
77135;Laerm;48586;50.122;18.972;2023-03-01T06:32:34;52.77;42.77;63.62;;
77135;Laerm;48586;50.122;18.972;2023-03-01T06:34:39;50.72;43.05;70.27;;
77135;Laerm;48586;50.122;18.972;2023-03-01T06:36:47;53.92;44.13;70.81;;
77135;Laerm;48586;50.122;18.972;2023-03-01T06:38:53;48.48;39.53;57.41;;
77135;Laerm;48586;50.122;18.972;2023-03-01T06:40:58;48.34;38.78;56.62;;
77135;Laerm;48586;50.122;18.972;2023-03-01T06:43:03;49.79;41.52;57.05;;
77135;Laerm;48586;50.122;18.972;2023-03-01T06:45:11;58.32;41.67;77.80;;
77135;Laerm;48586;50.122;18.972;2023-03-01T06:47:16;67.57;46.54;80.38;;
77135;Laerm;48586;50.122;18.972;2023-03-01T06:49:21;51.90;40.16;60.14;;
77135;Laerm;48586;50.122;18.972;2023-03-01T06:51:27;51.07;43.90;56.74;;
77135;Laerm;48586;50.122;18.972;2023-03-01T06:53:33;52.18;42.13;57.19;;
77135;Laerm;48586;50.122;18.972;2023-03-01T06:55:39;50.95;44.82;58.51;;
77135;Laerm;48586;50.122;18.972;2023-03-01T06:57:44;50.52;42.79;57.62;;
77135;Laerm;48586;50.122;18.972;2023-03-01T06:59:50;49.67;38.95;58.33;;
77135;Laerm;48586;50.122;18.972;2023-03-01T07:01:54;47.13;38.40;55.85;;
77135;Laerm;48586;50.122;18.972;2023-03-01T07:04:01;52.35;42.78;69.13;;
77135;Laerm;48586;50.122;18.972;2023-03-01T07:06:05;50.76;40.00;63.78;;
77135;Laerm;48586;50.122;18.972;2023-03-01T07:08:11;52.29;40.89;65.80;;
77135;Laerm;48586;50.122;18.972;2023-03-01T07:10:19;51.55;42.38;58.06;;
77135;Laerm;48586;50.122;18.972;2023-03-01T07:12:23;50.23;43.31;57.92;;
77135;Laerm;48586;50.122;18.972;2023-03-01T07:14:29;47.53;38.65;61.26;;
77135;Laerm;48586;50.122;18.972;2023-03-01T07:16:34;49.14;38.85;60.77;;
77135;Laerm;48586;50.122;18.972;2023-03-01T07:18:40;49.07;39.65;63.25;;
77135;Laerm;48586;50.122;18.972;2023-03-01T07:20:44;51.91;38.04;67.98;;
77135;Laerm;48586;50.122;18.972;2023-03-01T07:22:50;49.45;41.71;59.53;;
77135;Laerm;48586;50.122;18.972;2023-03-01T07:24:54;52.81;44.45;67.42;;
77135;Laerm;48586;50.122;18.972;2023-03-01T07:27:03;51.19;42.22;68.00;;
77135;Laerm;48586;50.122;18.972;2023-03-01T07:29:10;48.02;40.91;65.07;;
77135;Laerm;48586;50.122;18.972;2023-03-01T07:31:15;54.03;42.29;65.56;;
77135;Laerm;48586;50.122;18.972;2023-03-01T07:33:22;47.59;39.38;67.33;;
77135;Laerm;48586;50.122;18.972;2023-03-01T07:35:28;52.13;41.33;60.98;;
77135;Laerm;48586;50.122;18.972;2023-03-01T07:37:35;48.84;40.82;55.00;;
77135;Laerm;48586;50.122;18.972;2023-03-01T07:39:41;49.69;38.57;70.16;;
77135;Laerm;48586;50.122;18.972;2023-03-01T07:41:48;50.09;39.28;61.75;;
77135;Laerm;48586;50.122;18.972;2023-03-01T07:44:00;51.30;39.15;69.41;;
77135;Laerm;48586;50.122;18.972;2023-03-01T07:46:06;49.61;39.22;56.81;;
77135;Laerm;48586;50.122;18.972;2023-03-01T07:48:13;49.08;38.42;65.94;;
77135;Laerm;48586;50.122;18.972;2023-03-01T07:50:20;51.20;40.87;66.48;;
77135;Laerm;48586;50.122;18.972;2023-03-01T07:52:26;49.79;43.21;61.90;;
77135;Laerm;48586;50.122;18.972;2023-03-01T07:54:33;48.52;39.88;56.48;;
77135;Laerm;48586;50.122;18.972;2023-03-01T07:56:37;49.25;39.94;57.79;;
77135;Laerm;48586;50.122;18.972;2023-03-01T07:58:44;50.49;42.35;60.46;;
77135;Laerm;48586;50.122;18.972;2023-03-01T08:00:52;48.31;37.91;58.78;;
77135;Laerm;48586;50.122;18.972;2023-03-01T08:02:59;49.54;40.69;73.42;;
77135;Laerm;48586;50.122;18.972;2023-03-01T08:05:06;49.99;40.53;65.74;;
77135;Laerm;48586;50.122;18.972;2023-03-01T08:07:11;53.33;41.80;68.90;;
77135;Laerm;48586;50.122;18.972;2023-03-01T08:09:17;50.51;39.79;65.01;;
77135;Laerm;48586;50.122;18.972;2023-03-01T08:11:22;51.59;39.64;64.87;;
77135;Laerm;48586;50.122;18.972;2023-03-01T08:13:31;50.35;38.91;69.70;;
77135;Laerm;48586;50.122;18.972;2023-03-01T08:15:37;49.33;37.35;58.19;;
77135;Laerm;48586;50.122;18.972;2023-03-01T08:17:43;47.01;38.13;55.58;;
77135;Laerm;48586;50.122;18.972;2023-03-01T08:19:50;51.72;44.66;63.95;;
77135;Laerm;48586;50.122;18.972;2023-03-01T08:21:55;51.39;39.07;70.32;;
77135;Laerm;48586;50.122;18.972;2023-03-01T08:24:03;50.40;38.17;70.02;;
77135;Laerm;48586;50.122;18.972;2023-03-01T08:26:12;50.79;37.24;67.54;;
77135;Laerm;48586;50.122;18.972;2023-03-01T08:28:18;52.81;42.17;67.73;;
77135;Laerm;48586;50.122;18.972;2023-03-01T08:30:22;49.58;39.87;65.32;;
77135;Laerm;48586;50.122;18.972;2023-03-01T08:32:28;47.64;37.86;64.91;;
77135;Laerm;48586;50.122;18.972;2023-03-01T08:34:35;47.65;37.86;58.66;;
77135;Laerm;48586;50.122;18.972;2023-03-01T08:36:43;49.54;40.84;61.41;;
77135;Laerm;48586;50.122;18.972;2023-03-01T08:38:49;49.63;40.62;57.31;;
77135;Laerm;48586;50.122;18.972;2023-03-01T08:40:53;49.33;41.29;57.61;;
77135;Laerm;48586;50.122;18.972;2023-03-01T08:42:59;50.42;39.72;60.29;;
77135;Laerm;48586;50.122;18.972;2023-03-01T08:45:08;49.76;41.66;58.32;;
77135;Laerm;48586;50.122;18.972;2023-03-01T08:47:14;49.06;39.38;59.70;;
77135;Laerm;48586;50.122;18.972;2023-03-01T08:49:20;48.83;37.09;56.53;;
77135;Laerm;48586;50.122;18.972;2023-03-01T08:51:29;48.95;39.18;56.91;;
77135;Laerm;48586;50.122;18.972;2023-03-01T08:53:38;49.49;37.52;74.24;;
77135;Laerm;48586;50.122;18.972;2023-03-01T08:55:42;48.33;38.84;58.73;;
77135;Laerm;48586;50.122;18.972;2023-03-01T08:57:47;48.13;40.85;59.15;;
77135;Laerm;48586;50.122;18.972;2023-03-01T08:59:52;46.66;38.49;54.83;;
77135;Laerm;48586;50.122;18.972;2023-03-01T09:01:57;51.73;37.53;64.11;;
77135;Laerm;48586;50.122;18.972;2023-03-01T09:04:03;48.91;37.44;66.92;;
77135;Laerm;48586;50.122;18.972;2023-03-01T09:06:10;45.81;35.88;66.16;;
77135;Laerm;48586;50.122;18.972;2023-03-01T09:08:18;46.33;37.00;54.73;;
77135;Laerm;48586;50.122;18.972;2023-03-01T09:10:25;48.06;38.05;62.25;;
77135;Laerm;48586;50.122;18.972;2023-03-01T09:12:29;47.95;39.19;56.24;;
77135;Laerm;48586;50.122;18.972;2023-03-01T09:14:34;51.43;39.88;68.71;;
77135;Laerm;48586;50.122;18.972;2023-03-01T09:16:40;46.93;37.27;54.14;;
77135;Laerm;48586;50.122;18.972;2023-03-01T09:18:49;48.11;39.41;56.37;;
77135;Laerm;48586;50.122;18.972;2023-03-01T09:21:02;50.02;38.77;64.29;;
77135;Laerm;48586;50.122;18.972;2023-03-01T09:23:12;52.10;38.18;64.90;;
77135;Laerm;48586;50.122;18.972;2023-03-01T09:25:19;48.64;38.54;56.38;;
77135;Laerm;48586;50.122;18.972;2023-03-01T09:27:25;48.25;37.43;56.29;;
77135;Laerm;48586;50.122;18.972;2023-03-01T09:29:30;47.66;39.11;56.84;;
77135;Laerm;48586;50.122;18.972;2023-03-01T09:31:34;48.74;40.40;65.21;;
77135;Laerm;48586;50.122;18.972;2023-03-01T09:33:42;53.03;42.03;70.58;;
77135;Laerm;48586;50.122;18.972;2023-03-01T09:35:50;49.14;41.66;62.07;;
77135;Laerm;48586;50.122;18.972;2023-03-01T09:37:59;49.11;39.18;57.15;;
77135;Laerm;48586;50.122;18.972;2023-03-01T09:40:11;50.90;40.23;61.25;;
77135;Laerm;48586;50.122;18.972;2023-03-01T09:42:22;46.96;38.58;61.54;;
77135;Laerm;48586;50.122;18.972;2023-03-01T09:44:38;52.62;39.25;70.21;;
77135;Laerm;48586;50.122;18.972;2023-03-01T09:46:47;50.13;37.17;62.65;;
77135;Laerm;48586;50.122;18.972;2023-03-01T09:49:07;48.12;36.97;60.38;;
77135;Laerm;48586;50.122;18.972;2023-03-01T09:51:21;48.87;41.72;56.53;;
77135;Laerm;48586;50.122;18.972;2023-03-01T09:53:33;48.61;38.46;62.79;;
77135;Laerm;48586;50.122;18.972;2023-03-01T09:55:44;49.43;42.20;60.31;;
77135;Laerm;48586;50.122;18.972;2023-03-01T09:58:00;47.18;37.58;64.68;;
77135;Laerm;48586;50.122;18.972;2023-03-01T10:00:33;49.95;37.36;68.72;;
77135;Laerm;48586;50.122;18.972;2023-03-01T10:02:58;46.97;37.06;58.48;;
77135;Laerm;48586;50.122;18.972;2023-03-01T10:05:27;47.11;37.92;56.14;;
77135;Laerm;48586;50.122;18.972;2023-03-01T10:07:52;52.71;40.90;65.87;;
77135;Laerm;48586;50.122;18.972;2023-03-01T10:10:01;49.93;37.76;59.51;;
77135;Laerm;48586;50.122;18.972;2023-03-01T10:12:16;43.71;36.70;57.62;;
77135;Laerm;48586;50.122;18.972;2023-03-01T10:14:36;47.35;37.42;60.32;;
77135;Laerm;48586;50.122;18.972;2023-03-01T10:16:52;51.26;42.76;66.27;;
77135;Laerm;48586;50.122;18.972;2023-03-01T10:19:05;46.87;37.76;55.45;;
77135;Laerm;48586;50.122;18.972;2023-03-01T10:21:17;47.65;38.52;61.27;;
77135;Laerm;48586;50.122;18.972;2023-03-01T10:23:24;47.46;37.73;55.80;;
77135;Laerm;48586;50.122;18.972;2023-03-01T10:25:51;50.33;41.78;59.66;;
77135;Laerm;48586;50.122;18.972;2023-03-01T10:28:14;47.88;39.50;55.59;;
77135;Laerm;48586;50.122;18.972;2023-03-01T10:30:36;49.34;40.42;58.80;;
77135;Laerm;48586;50.122;18.972;2023-03-01T10:32:51;45.71;39.03;58.43;;
77135;Laerm;48586;50.122;18.972;2023-03-01T10:34:59;52.10;38.10;62.60;;
77135;Laerm;48586;50.122;18.972;2023-03-01T10:37:12;47.84;37.21;58.75;;
77135;Laerm;48586;50.122;18.972;2023-03-01T10:39:21;49.69;38.77;62.72;;
77135;Laerm;48586;50.122;18.972;2023-03-01T10:41:28;50.76;39.44;60.27;;
77135;Laerm;48586;50.122;18.972;2023-03-01T10:43:46;49.40;38.75;58.46;;
77135;Laerm;48586;50.122;18.972;2023-03-01T10:45:54;47.32;37.63;54.07;;
77135;Laerm;48586;50.122;18.972;2023-03-01T10:48:13;48.30;40.09;56.82;;
77135;Laerm;48586;50.122;18.972;2023-03-01T10:50:23;47.13;38.39;55.65;;
77135;Laerm;48586;50.122;18.972;2023-03-01T10:52:33;48.58;37.84;58.26;;
77135;Laerm;48586;50.122;18.972;2023-03-01T10:54:39;46.77;36.82;54.45;;
77135;Laerm;48586;50.122;18.972;2023-03-01T10:56:49;50.18;38.28;60.61;;
77135;Laerm;48586;50.122;18.972;2023-03-01T10:59:01;50.59;36.48;69.91;;
77135;Laerm;48586;50.122;18.972;2023-03-01T11:01:29;68.38;37.19;79.46;;
77135;Laerm;48586;50.122;18.972;2023-03-01T11:03:38;61.54;37.46;79.02;;
77135;Laerm;48586;50.122;18.972;2023-03-01T11:06:04;49.08;39.76;67.65;;
77135;Laerm;48586;50.122;18.972;2023-03-01T11:08:10;48.83;38.19;65.80;;
77135;Laerm;48586;50.122;18.972;2023-03-01T11:10:20;49.01;37.89;72.76;;
77135;Laerm;48586;50.122;18.972;2023-03-01T11:12:26;50.34;38.68;65.99;;
77135;Laerm;48586;50.122;18.972;2023-03-01T11:14:38;47.34;37.39;59.35;;
77135;Laerm;48586;50.122;18.972;2023-03-01T11:17:18;47.36;37.76;54.97;;
77135;Laerm;48586;50.122;18.972;2023-03-01T11:19:28;46.85;38.43;66.55;;
77135;Laerm;48586;50.122;18.972;2023-03-01T11:21:40;51.03;39.01;72.98;;
77135;Laerm;48586;50.122;18.972;2023-03-01T11:23:47;45.04;36.71;57.76;;
77135;Laerm;48586;50.122;18.972;2023-03-01T11:25:58;48.69;38.90;62.53;;
77135;Laerm;48586;50.122;18.972;2023-03-01T11:28:09;49.55;37.69;64.67;;
77135;Laerm;48586;50.122;18.972;2023-03-01T11:30:25;47.66;36.37;65.11;;
77135;Laerm;48586;50.122;18.972;2023-03-01T11:32:42;53.53;38.89;70.33;;
77135;Laerm;48586;50.122;18.972;2023-03-01T11:34:58;50.43;38.43;70.50;;
77135;Laerm;48586;50.122;18.972;2023-03-01T11:37:22;49.20;36.74;70.89;;
77135;Laerm;48586;50.122;18.972;2023-03-01T11:39:38;49.16;37.94;57.52;;
77135;Laerm;48586;50.122;18.972;2023-03-01T11:42:03;49.90;37.02;64.18;;
77135;Laerm;48586;50.122;18.972;2023-03-01T11:44:24;49.49;36.88;58.51;;
77135;Laerm;48586;50.122;18.972;2023-03-01T11:47:07;47.79;37.34;55.82;;